createdAt,value
2023-10-29T00:00:19.849Z,14.60
2023-10-29T00:02:48.109Z,14.60
2023-10-29T00:05:16.508Z,14.60
2023-10-29T00:07:44.640Z,14.60
2023-10-29T00:10:14.296Z,14.90
2023-10-29T00:12:42.457Z,14.60
2023-10-29T00:15:11.320Z,14.60
2023-10-29T00:17:39.944Z,14.60
2023-10-29T00:20:08.787Z,14.80
2023-10-29T00:22:37.002Z,14.60
2023-10-29T00:25:05.356Z,14.60
2023-10-29T00:27:34.822Z,14.60
2023-10-29T00:30:04.064Z,14.60
2023-10-29T00:32:32.296Z,14.60
2023-10-29T00:35:01.414Z,14.60
2023-10-29T00:37:30.507Z,14.60
2023-10-29T00:39:58.645Z,14.60
2023-10-29T00:42:26.751Z,14.70
2023-10-29T00:44:56.329Z,14.70
2023-10-29T00:47:24.990Z,14.70
2023-10-29T00:49:53.897Z,14.70
2023-10-29T00:52:22.861Z,14.90
2023-10-29T00:54:51.166Z,14.70
2023-10-29T00:57:19.888Z,14.70
2023-10-29T00:59:48.932Z,14.70
2023-10-29T01:02:18.689Z,14.70
2023-10-29T01:04:47.798Z,15.00
2023-10-29T01:07:18.003Z,14.70
2023-10-29T01:09:47.374Z,14.70
2023-10-29T01:12:18.056Z,14.90
2023-10-29T01:14:46.598Z,14.90
2023-10-29T01:17:16.286Z,14.80
2023-10-29T01:19:45.803Z,14.80
2023-10-29T01:22:14.131Z,14.80
2023-10-29T01:24:42.287Z,14.80
2023-10-29T01:27:11.257Z,14.80
2023-10-29T01:29:39.434Z,14.80
2023-10-29T01:32:08.013Z,14.80
2023-10-29T01:34:36.164Z,14.80
2023-10-29T01:37:14.742Z,14.80
2023-10-29T01:39:44.150Z,14.50
2023-10-29T01:42:12.642Z,14.80
2023-10-29T01:44:40.846Z,14.80
2023-10-29T01:47:09.480Z,14.80
2023-10-29T01:49:37.939Z,14.80
2023-10-29T01:52:06.880Z,14.80
2023-10-29T01:54:37.523Z,14.80
2023-10-29T01:57:06.588Z,14.80
2023-10-29T01:59:36.321Z,14.90
2023-10-29T02:02:06.350Z,14.90
2023-10-29T02:04:35.148Z,14.90
2023-10-29T02:07:04.050Z,14.90
2023-10-29T02:09:32.228Z,14.90
2023-10-29T02:12:01.785Z,14.90
2023-10-29T02:14:31.253Z,15.00
2023-10-29T02:16:59.792Z,14.80
2023-10-29T02:19:27.936Z,14.90
2023-10-29T02:21:57.580Z,14.90
2023-10-29T02:24:25.798Z,14.90
2023-10-29T02:26:54.383Z,14.90
2023-10-29T02:29:22.697Z,14.90
2023-10-29T02:31:51.104Z,14.90
2023-10-29T02:34:19.209Z,14.90
2023-10-29T02:36:48.784Z,14.90
2023-10-29T02:39:19.230Z,14.90
2023-10-29T02:41:47.514Z,14.90
2023-10-29T02:44:15.740Z,14.90
2023-10-29T02:46:43.951Z,14.90
2023-10-29T02:49:14.095Z,14.90
2023-10-29T02:51:42.222Z,14.90
2023-10-29T02:54:10.411Z,15.10
2023-10-29T02:56:39.987Z,14.90
2023-10-29T02:59:08.144Z,14.90
2023-10-29T03:01:38.313Z,14.90
2023-10-29T03:04:07.376Z,14.90
2023-10-29T03:06:37.711Z,14.90
2023-10-29T03:09:06.216Z,14.90
2023-10-29T03:11:34.371Z,14.90
2023-10-29T03:14:03.989Z,14.90
2023-10-29T03:16:32.392Z,14.90
2023-10-29T03:19:00.740Z,15.30
2023-10-29T03:21:28.870Z,14.90
2023-10-29T03:23:57.512Z,14.90
2023-10-29T03:26:25.718Z,14.90
2023-10-29T03:28:53.988Z,14.90
2023-10-29T03:31:24.779Z,14.90
2023-10-29T03:33:52.943Z,14.90
2023-10-29T03:36:21.299Z,14.90
2023-10-29T03:38:50.279Z,14.90
2023-10-29T03:41:22.570Z,14.90
2023-10-29T03:43:51.074Z,14.90
2023-10-29T03:46:20.715Z,14.90
2023-10-29T03:48:50.611Z,14.90
2023-10-29T03:51:19.470Z,14.90
2023-10-29T03:53:48.013Z,14.90
2023-10-29T03:56:16.219Z,14.90
2023-10-29T03:58:44.427Z,14.90
2023-10-29T04:01:15.116Z,15.00
2023-10-29T04:03:44.940Z,14.90
2023-10-29T04:06:15.321Z,15.00
2023-10-29T04:08:43.739Z,15.00
2023-10-29T04:11:11.956Z,15.00
2023-10-29T04:13:41.315Z,15.00
2023-10-29T04:16:09.639Z,14.70
2023-10-29T04:18:37.988Z,15.00
2023-10-29T04:21:08.230Z,15.00
2023-10-29T04:23:38.550Z,15.00
2023-10-29T04:26:06.808Z,15.00
2023-10-29T04:28:35.938Z,15.00
2023-10-29T04:31:04.546Z,15.30
2023-10-29T04:33:33.982Z,15.00
2023-10-29T04:36:02.659Z,15.00
2023-10-29T04:38:30.972Z,15.00
2023-10-29T04:41:00.740Z,15.00
2023-10-29T04:43:28.924Z,15.00
2023-10-29T04:45:58.017Z,15.00
2023-10-29T04:48:26.306Z,15.00
2023-10-29T04:50:54.599Z,15.00
2023-10-29T04:53:22.784Z,15.00
2023-10-29T04:55:50.998Z,15.10
2023-10-29T04:58:20.747Z,15.10
2023-10-29T05:00:48.959Z,15.10
2023-10-29T05:03:17.656Z,15.10
2023-10-29T05:05:45.964Z,15.10
2023-10-29T05:08:14.061Z,15.30
2023-10-29T05:10:42.663Z,15.10
2023-10-29T05:13:11.265Z,15.10
2023-10-29T05:15:41.808Z,15.10
2023-10-29T05:18:10.257Z,15.10
2023-10-29T05:20:39.540Z,15.10
2023-10-29T05:23:08.642Z,15.10
2023-10-29T05:25:39.936Z,15.10
2023-10-29T05:28:08.150Z,15.10
2023-10-29T05:30:36.357Z,15.10
2023-10-29T05:33:06.190Z,15.10
2023-10-29T05:35:34.506Z,15.10
2023-10-29T05:38:02.631Z,15.10
2023-10-29T05:40:31.022Z,15.10
2023-10-29T05:42:59.564Z,15.10
2023-10-29T05:45:29.133Z,15.20
2023-10-29T05:47:58.024Z,15.20
2023-10-29T05:50:27.757Z,15.20
2023-10-29T05:52:55.924Z,15.20
2023-10-29T05:55:24.823Z,15.20
2023-10-29T05:57:53.502Z,15.20
2023-10-29T06:00:21.939Z,15.20
2023-10-29T06:02:50.648Z,15.20
2023-10-29T06:05:18.953Z,15.20
2023-10-29T06:07:48.598Z,15.20
2023-10-29T06:10:16.866Z,15.20
2023-10-29T06:12:45.049Z,15.20
2023-10-29T06:15:13.689Z,15.20
2023-10-29T06:17:42.969Z,15.20
2023-10-29T06:20:18.006Z,15.20
2023-10-29T06:22:46.246Z,15.20
2023-10-29T06:25:16.013Z,15.20
2023-10-29T06:27:44.131Z,15.20
2023-10-29T06:30:13.233Z,15.20
2023-10-29T06:32:41.592Z,15.20
2023-10-29T06:35:10.761Z,15.20
2023-10-29T06:37:39.238Z,15.20
2023-10-29T06:40:09.816Z,15.20
2023-10-29T06:42:40.469Z,15.20
2023-10-29T06:45:11.243Z,15.20
2023-10-29T06:47:39.667Z,15.20
2023-10-29T06:50:08.837Z,15.20
2023-10-29T06:52:37.583Z,15.20
2023-10-29T06:55:08.003Z,15.20
2023-10-29T06:57:36.167Z,15.20
2023-10-29T07:00:08.773Z,15.20
2023-10-29T07:02:37.773Z,15.20
2023-10-29T07:05:07.641Z,15.20
2023-10-29T07:07:36.147Z,15.20
2023-10-29T07:10:05.161Z,15.20
2023-10-29T07:12:33.805Z,15.20
2023-10-29T07:15:02.303Z,15.20
2023-10-29T07:17:32.214Z,15.20
2023-10-29T07:20:00.486Z,15.20
2023-10-29T07:22:28.610Z,15.20
2023-10-29T07:24:56.981Z,15.20
2023-10-29T07:27:25.438Z,15.20
2023-10-29T07:29:53.665Z,15.30
2023-10-29T07:32:21.792Z,15.20
2023-10-29T07:34:51.375Z,15.20
2023-10-29T07:37:19.551Z,15.20
2023-10-29T07:39:47.837Z,15.20
2023-10-29T07:42:16.132Z,15.20
2023-10-29T07:44:44.367Z,15.20
2023-10-29T07:47:12.605Z,15.20
2023-10-29T07:49:40.990Z,15.20
2023-10-29T07:52:11.594Z,15.20
2023-10-29T07:54:41.608Z,15.20
2023-10-29T07:57:09.847Z,15.20
2023-10-29T07:59:38.572Z,15.20
2023-10-29T08:02:07.242Z,15.20
2023-10-29T08:04:35.403Z,15.20
2023-10-29T08:07:04.877Z,15.10
2023-10-29T08:09:34.469Z,15.10
2023-10-29T08:12:02.731Z,15.20
2023-10-29T08:14:30.869Z,15.20
2023-10-29T08:16:59.125Z,15.10
2023-10-29T08:19:28.173Z,15.20
2023-10-29T08:21:56.274Z,15.20
2023-10-29T08:24:24.417Z,15.10
2023-10-29T08:26:53.982Z,15.20
2023-10-29T08:29:22.121Z,15.20
2023-10-29T08:31:50.253Z,15.10
2023-10-29T08:34:18.426Z,15.10
2023-10-29T08:36:46.671Z,15.10
2023-10-29T08:39:15.773Z,15.20
2023-10-29T08:41:43.932Z,15.10
2023-10-29T08:44:13.375Z,15.10
2023-10-29T08:46:42.356Z,15.10
2023-10-29T08:49:10.847Z,15.10
2023-10-29T08:51:38.981Z,15.10
2023-10-29T08:54:07.974Z,15.10
2023-10-29T08:56:36.632Z,15.10
2023-10-29T08:59:06.140Z,15.10
2023-10-29T09:01:35.665Z,15.10
2023-10-29T09:04:05.156Z,15.10
2023-10-29T09:06:34.473Z,15.10
2023-10-29T09:09:03.115Z,15.10
2023-10-29T09:11:31.835Z,15.10
2023-10-29T09:14:02.220Z,15.10
2023-10-29T09:16:30.505Z,15.10
2023-10-29T09:19:00.023Z,15.10
2023-10-29T09:21:28.342Z,15.30
2023-10-29T09:23:56.672Z,15.10
2023-10-29T09:26:25.015Z,15.10
2023-10-29T09:28:53.405Z,15.10
2023-10-29T09:31:21.567Z,15.20
2023-10-29T09:33:49.682Z,15.20
2023-10-29T09:36:19.751Z,15.10
2023-10-29T09:38:48.045Z,15.20
2023-10-29T09:41:18.661Z,15.20
2023-10-29T09:43:47.769Z,15.20
2023-10-29T09:46:16.111Z,15.20
2023-10-29T09:48:45.650Z,15.20
2023-10-29T09:51:14.168Z,15.20
2023-10-29T09:53:44.146Z,15.20
2023-10-29T09:56:13.657Z,14.90
2023-10-29T09:58:41.991Z,15.20
2023-10-29T10:01:10.881Z,15.30
2023-10-29T10:03:39.287Z,15.20
2023-10-29T10:06:09.376Z,15.30
2023-10-29T10:08:37.948Z,15.30
2023-10-29T10:11:20.976Z,15.30
2023-10-29T10:13:49.373Z,15.30
2023-10-29T10:16:18.140Z,15.30
2023-10-29T10:18:54.116Z,15.40
2023-10-29T10:21:24.348Z,15.40
2023-10-29T10:23:54.272Z,15.40
2023-10-29T10:26:32.349Z,15.30
2023-10-29T10:29:01.950Z,15.40
2023-10-29T10:31:32.550Z,15.40
2023-10-29T10:34:15.135Z,15.40
2023-10-29T10:36:43.771Z,15.40
2023-10-29T10:39:12.240Z,15.40
2023-10-29T10:41:44.366Z,15.40
2023-10-29T10:44:14.003Z,15.40
2023-10-29T10:46:48.768Z,15.40
2023-10-29T10:49:17.798Z,15.40
2023-10-29T10:51:46.957Z,15.50
2023-10-29T10:54:18.201Z,15.50
2023-10-29T10:56:48.416Z,15.50
2023-10-29T10:59:17.671Z,15.50
2023-10-29T11:01:46.026Z,15.50
2023-10-29T11:04:14.867Z,15.50
2023-10-29T11:06:44.659Z,15.50
2023-10-29T11:09:14.971Z,15.60
2023-10-29T11:11:49.874Z,15.80
2023-10-29T11:14:19.489Z,15.50
2023-10-29T11:16:49.602Z,15.60
2023-10-29T11:19:47.279Z,15.60
2023-10-29T11:22:17.243Z,15.60
2023-10-29T11:24:45.834Z,15.70
2023-10-29T11:27:37.799Z,15.70
2023-10-29T11:30:14.388Z,15.70
2023-10-29T11:32:43.106Z,15.70
2023-10-29T11:35:22.239Z,15.70
2023-10-29T11:37:53.082Z,15.80
2023-10-29T11:40:35.213Z,15.80
2023-10-29T11:43:22.183Z,15.80
2023-10-29T11:46:00.964Z,15.80
2023-10-29T11:48:31.374Z,15.80
2023-10-29T11:51:33.046Z,15.80
2023-10-29T11:54:04.482Z,15.90
2023-10-29T11:56:36.376Z,15.90
2023-10-29T11:59:07.200Z,15.90
2023-10-29T12:01:36.995Z,15.90
2023-10-29T12:04:07.237Z,15.90
2023-10-29T12:06:43.180Z,15.80
2023-10-29T12:09:19.465Z,15.80
2023-10-29T12:11:50.274Z,15.80
2023-10-29T12:14:43.517Z,15.80
2023-10-29T12:17:12.765Z,15.90
2023-10-29T12:19:42.872Z,15.90
2023-10-29T12:22:18.894Z,15.80
2023-10-29T12:24:48.101Z,15.80
2023-10-29T12:27:17.035Z,15.80
2023-10-29T12:29:46.732Z,15.60
2023-10-29T12:32:19.395Z,15.80
2023-10-29T12:34:49.380Z,15.80
2023-10-29T12:37:25.856Z,15.80
2023-10-29T12:39:57.187Z,15.80
2023-10-29T12:42:40.539Z,15.80
2023-10-29T12:45:11.404Z,15.80
2023-10-29T12:47:39.714Z,15.80
2023-10-29T12:50:08.482Z,15.80
2023-10-29T12:52:36.641Z,15.80
2023-10-29T12:55:09.638Z,15.80
2023-10-29T12:57:38.802Z,15.80
2023-10-29T13:00:08.175Z,15.80
2023-10-29T13:02:37.876Z,15.80
2023-10-29T13:05:06.883Z,15.70
2023-10-29T13:07:35.627Z,15.80
2023-10-29T13:10:08.104Z,15.70
2023-10-29T13:12:38.122Z,15.80
2023-10-29T13:15:07.926Z,15.70
2023-10-29T13:17:37.622Z,15.70
2023-10-29T13:20:07.305Z,15.80
2023-10-29T13:22:35.696Z,15.80
2023-10-29T13:25:05.565Z,15.80
2023-10-29T13:27:33.812Z,15.80
2023-10-29T13:30:02.134Z,15.80
2023-10-29T13:32:30.597Z,15.80
2023-10-29T13:35:00.212Z,15.80
2023-10-29T13:37:29.764Z,15.80
2023-10-29T13:39:57.841Z,15.80
2023-10-29T13:42:26.532Z,15.80
2023-10-29T13:44:57.508Z,15.90
2023-10-29T13:47:25.876Z,16.10
2023-10-29T13:49:54.068Z,15.80
2023-10-29T13:52:24.601Z,16.10
2023-10-29T13:54:52.815Z,15.90
2023-10-29T13:57:21.078Z,15.90
2023-10-29T13:59:49.245Z,15.90
2023-10-29T14:02:17.536Z,15.90
2023-10-29T14:04:45.714Z,15.80
2023-10-29T14:07:13.886Z,15.80
2023-10-29T14:09:43.386Z,15.90
2023-10-29T14:12:11.896Z,15.80
2023-10-29T14:14:40.119Z,15.80
2023-10-29T14:17:08.246Z,15.80
2023-10-29T14:19:36.608Z,15.80
2023-10-29T14:22:05.222Z,15.80
2023-10-29T14:24:33.557Z,15.60
2023-10-29T14:27:03.104Z,15.80
2023-10-29T14:29:31.255Z,15.80
2023-10-29T14:31:59.817Z,15.80
2023-10-29T14:34:27.956Z,15.80
2023-10-29T14:36:56.050Z,15.80
2023-10-29T14:39:24.601Z,15.90
2023-10-29T14:41:52.788Z,15.80
2023-10-29T14:44:22.867Z,15.90
2023-10-29T14:46:51.132Z,15.90
2023-10-29T14:49:19.356Z,15.90
2023-10-29T14:51:47.458Z,15.90
2023-10-29T14:54:15.934Z,15.90
2023-10-29T14:56:44.311Z,15.90
2023-10-29T14:59:12.576Z,15.90
2023-10-29T15:01:42.235Z,15.90
2023-10-29T15:04:10.940Z,15.90
2023-10-29T15:06:42.223Z,15.90
2023-10-29T15:09:11.859Z,16.00
2023-10-29T15:11:40.603Z,16.00
2023-10-29T15:14:08.843Z,16.00
2023-10-29T15:16:37.091Z,16.00
2023-10-29T15:19:07.170Z,16.00
2023-10-29T15:21:35.441Z,16.00
2023-10-29T15:24:05.198Z,16.00
2023-10-29T15:26:33.714Z,16.00
2023-10-29T15:29:02.282Z,16.10
2023-10-29T15:31:30.495Z,16.00
2023-10-29T15:33:58.644Z,16.10
2023-10-29T15:36:28.165Z,16.10
2023-10-29T15:38:56.407Z,16.10
2023-10-29T15:41:27.043Z,16.10
2023-10-29T15:43:56.816Z,16.10
2023-10-29T15:46:24.973Z,16.10
2023-10-29T15:48:53.288Z,16.10
2023-10-29T15:51:25.507Z,16.10
2023-10-29T15:53:55.710Z,16.10
2023-10-29T15:56:25.797Z,16.10
2023-10-29T15:59:03.239Z,16.10
2023-10-29T16:01:33.967Z,16.00
2023-10-29T16:04:02.521Z,16.00
2023-10-29T16:06:31.158Z,16.00
2023-10-29T16:09:00.736Z,16.00
2023-10-29T16:11:28.886Z,16.20
2023-10-29T16:13:57.024Z,16.00
2023-10-29T16:16:25.320Z,16.00
2023-10-29T16:18:54.070Z,16.00
2023-10-29T16:21:22.249Z,16.00
2023-10-29T16:23:50.593Z,15.90
2023-10-29T16:26:20.544Z,15.90
2023-10-29T16:28:49.077Z,15.90
2023-10-29T16:31:18.809Z,16.30
2023-10-29T16:33:47.258Z,15.90
2023-10-29T16:36:17.386Z,15.90
2023-10-29T16:38:46.135Z,15.90
2023-10-29T16:41:16.399Z,15.90
2023-10-29T16:43:48.329Z,15.90
2023-10-29T16:46:18.808Z,15.80
2023-10-29T16:48:48.294Z,15.80
2023-10-29T16:51:16.472Z,15.80
2023-10-29T16:53:44.788Z,15.80
2023-10-29T16:56:13.521Z,15.80
2023-10-29T16:58:43.490Z,15.80
2023-10-29T17:01:14.436Z,15.80
2023-10-29T17:03:43.290Z,15.80
2023-10-29T17:06:11.668Z,15.90
2023-10-29T17:08:39.846Z,15.90
2023-10-29T17:11:08.074Z,15.80
2023-10-29T17:13:36.308Z,15.80
2023-10-29T17:16:05.749Z,15.80
2023-10-29T17:18:36.315Z,15.80
2023-10-29T17:21:05.066Z,15.80
2023-10-29T17:23:33.297Z,15.80
2023-10-29T17:26:01.668Z,15.80
2023-10-29T17:28:29.960Z,15.80
2023-10-29T17:30:58.210Z,15.80
2023-10-29T17:33:26.399Z,15.70
2023-10-29T17:35:56.026Z,15.70
2023-10-29T17:38:24.309Z,15.70
2023-10-29T17:40:52.415Z,15.80
2023-10-29T17:43:22.315Z,15.70
2023-10-29T17:45:50.663Z,15.70
2023-10-29T17:48:20.636Z,15.80
2023-10-29T17:50:58.267Z,15.70
2023-10-29T17:53:26.515Z,15.80
2023-10-29T17:55:54.634Z,15.80
2023-10-29T17:58:22.894Z,15.70
2023-10-29T18:00:51.045Z,15.70
2023-10-29T18:03:19.384Z,15.70
2023-10-29T18:05:47.656Z,15.60
2023-10-29T18:08:17.183Z,15.70
2023-10-29T18:10:45.540Z,15.70
2023-10-29T18:13:13.665Z,15.70
2023-10-29T18:15:41.855Z,15.70
2023-10-29T18:18:10.180Z,15.70
2023-10-29T18:20:38.641Z,15.60
2023-10-29T18:23:06.764Z,15.70
2023-10-29T18:25:36.409Z,15.70
2023-10-29T18:28:04.524Z,15.70
2023-10-29T18:30:32.786Z,15.60
2023-10-29T18:33:00.947Z,15.60
2023-10-29T18:35:31.297Z,15.70
2023-10-29T18:38:01.872Z,15.60
2023-10-29T18:40:31.267Z,15.60
2023-10-29T18:43:04.363Z,15.60
2023-10-29T18:45:32.547Z,15.60
2023-10-29T18:48:01.628Z,15.60
2023-10-29T18:50:29.951Z,15.60
2023-10-29T18:52:58.432Z,15.60
2023-10-29T18:55:26.840Z,15.60
2023-10-29T18:57:54.927Z,15.60
2023-10-29T19:00:25.093Z,15.60
2023-10-29T19:02:53.632Z,15.60
2023-10-29T19:05:22.048Z,15.60
2023-10-29T19:07:50.356Z,15.60
2023-10-29T19:10:18.806Z,15.60
2023-10-29T19:12:46.954Z,15.60
2023-10-29T19:15:15.151Z,15.60
2023-10-29T19:17:44.750Z,15.50
2023-10-29T19:20:13.894Z,15.50
2023-10-29T19:22:42.158Z,15.50
2023-10-29T19:25:11.174Z,15.50
2023-10-29T19:27:39.440Z,15.50
2023-10-29T19:30:09.094Z,15.50
2023-10-29T19:32:38.362Z,15.50
2023-10-29T19:35:10.147Z,15.50
2023-10-29T19:37:40.307Z,15.50
2023-10-29T19:40:10.065Z,15.50
2023-10-29T19:42:39.949Z,15.50
2023-10-29T19:45:09.280Z,15.50
2023-10-29T19:47:37.593Z,15.50
2023-10-29T19:50:08.748Z,15.60
2023-10-29T19:52:36.999Z,15.50
2023-10-29T19:55:06.013Z,15.50
2023-10-29T19:57:34.281Z,15.50
2023-10-29T20:00:02.502Z,15.60
2023-10-29T20:02:32.564Z,15.50
2023-10-29T20:05:01.823Z,15.50
2023-10-29T20:07:31.354Z,15.50
2023-10-29T20:09:59.508Z,15.50
2023-10-29T20:12:27.943Z,15.50
2023-10-29T20:14:56.116Z,15.50
2023-10-29T20:17:24.475Z,15.50
2023-10-29T20:19:52.585Z,15.50
2023-10-29T20:22:20.886Z,15.50
2023-10-29T20:24:54.715Z,15.50
2023-10-29T20:27:23.571Z,15.50
2023-10-29T20:29:51.914Z,15.50
2023-10-29T20:32:20.140Z,15.70
2023-10-29T20:34:48.322Z,15.50
2023-10-29T20:37:16.472Z,15.50
2023-10-29T20:39:44.913Z,15.50
2023-10-29T20:42:14.432Z,15.50
2023-10-29T20:44:42.605Z,15.50
2023-10-29T20:47:11.630Z,15.50
2023-10-29T20:49:39.839Z,15.50
2023-10-29T20:52:07.931Z,15.40
2023-10-29T20:54:36.633Z,15.40
2023-10-29T20:57:05.036Z,15.40
2023-10-29T20:59:34.946Z,15.40
2023-10-29T21:02:03.180Z,15.40
2023-10-29T21:04:31.489Z,15.40
2023-10-29T21:06:59.653Z,15.40
2023-10-29T21:09:28.102Z,15.60
2023-10-29T21:11:56.352Z,15.40
2023-10-29T21:14:24.505Z,15.40
2023-10-29T21:16:54.230Z,15.40
2023-10-29T21:19:29.923Z,15.40
2023-10-29T21:22:00.018Z,15.40
2023-10-29T21:24:28.317Z,15.40
2023-10-29T21:26:57.004Z,15.40
2023-10-29T21:29:25.561Z,15.40
2023-10-29T21:31:55.253Z,15.30
2023-10-29T21:34:23.874Z,15.40
2023-10-29T21:36:52.125Z,15.40
2023-10-29T21:39:20.484Z,15.30
2023-10-29T21:41:48.874Z,15.40
2023-10-29T21:44:16.945Z,15.40
2023-10-29T21:46:47.060Z,15.40
2023-10-29T21:49:16.678Z,15.30
2023-10-29T21:51:44.809Z,15.30
2023-10-29T21:54:13.055Z,15.30
2023-10-29T21:56:41.266Z,15.30
2023-10-29T21:59:09.340Z,15.30
2023-10-29T22:01:37.498Z,15.40
2023-10-29T22:04:06.022Z,15.30
2023-10-29T22:06:35.787Z,15.50
2023-10-29T22:09:04.140Z,15.30
2023-10-29T22:11:32.439Z,15.30
2023-10-29T22:14:00.562Z,15.30
2023-10-29T22:16:28.674Z,15.30
2023-10-29T22:18:56.889Z,15.30
2023-10-29T22:21:25.111Z,15.30
2023-10-29T22:23:55.539Z,15.30
2023-10-29T22:26:23.758Z,15.30
2023-10-29T22:28:52.312Z,15.30
2023-10-29T22:31:20.430Z,15.30
2023-10-29T22:33:49.564Z,15.30
2023-10-29T22:36:17.707Z,15.30
2023-10-29T22:38:45.861Z,15.30
2023-10-29T22:41:16.299Z,15.30
2023-10-29T22:43:45.436Z,15.30
2023-10-29T22:46:19.224Z,15.30
2023-10-29T22:48:48.765Z,15.30
2023-10-29T22:51:17.154Z,15.30
2023-10-29T22:53:46.652Z,15.30
2023-10-29T22:56:16.083Z,15.30
2023-10-29T22:58:44.422Z,15.30
2023-10-29T23:01:12.727Z,15.30
2023-10-29T23:03:41.532Z,15.30
2023-10-29T23:06:09.738Z,15.30
2023-10-29T23:08:37.913Z,15.60
2023-10-29T23:11:06.894Z,15.30
2023-10-29T23:13:36.447Z,15.60
2023-10-29T23:16:05.024Z,15.30
2023-10-29T23:18:33.955Z,15.30
2023-10-29T23:21:02.133Z,15.30
2023-10-29T23:23:30.299Z,15.30
2023-10-29T23:25:58.480Z,15.30
2023-10-29T23:28:37.447Z,15.30
2023-10-29T23:31:09.656Z,15.30
2023-10-29T23:33:38.235Z,15.30
2023-10-29T23:36:07.237Z,15.30
2023-10-29T23:38:35.341Z,15.30
2023-10-29T23:41:03.556Z,15.30
2023-10-29T23:43:31.680Z,15.40
2023-10-29T23:45:59.851Z,15.30
2023-10-29T23:48:30.563Z,15.30
2023-10-29T23:50:58.712Z,15.30
2023-10-29T23:53:26.852Z,15.30
2023-10-29T23:55:55.960Z,15.30
2023-10-29T23:58:24.103Z,15.30
